Kodiak, AK

2:17 AM AKDT on September 16, 2014 (GMT -0800)
Bob Plyler on Selief Lane | Change Station
CLOSE
Current Station
Personal Weather Station
Location: Kodiak, AK
Elevation: 115 ft
Nearby Weather Stations

Elev 115 ft 57.80 °N, 152.39 °W | Updated 4 seconds ago

Partly Cloudy
Partly Cloudy
46.2 °F
Feels Like 46 °F
N
0.0
Wind Variable Wind from East
Gusts 0.0 mph

Today
High -- | Low -- °F
--% Chance of Precip.
Yesterday
High -- | Low -- °F
Precip. -- in
7:42 AM 8:25 PM
Waning Gibbous, 47% visible
Pressure 29.74 in
Visibility 10.0 miles
Clouds Few 5500 ft
Windchill 46 °F
Dew Point 42 °F
Humidity 84%
Rainfall 0.00 in
Snow Depth Not available.
UV 0 out of 12
Pollen Not available.
Air Quality Not available.
Flu Activity Not available.
METAR PADQ 160953Z COR 29006KT 10SM FEW055 07/06 A2974 RMK AO2 SLP069 T00720061

More Conditions Fewer Conditions

Pressure 29.74 in
Visibility 10.0 miles
Clouds Few 5500 ft
Windchill 46 °F
Dew Point 42 °F
Humidity 84%
Rainfall 0.00 in
Snow Depth Not available.
UV 0 out of 12
Pollen Not available.
Air Quality Not available.
Flu Activity Not available.
METAR PADQ 160953Z COR 29006KT 10SM FEW055 07/06 A2974 RMK AO2 SLP069 T00720061

More Conditions Fewer Conditions

10-Day Weather Forecast

Almanac

Astronomy

Sep. 16, 2014 Rise Set
Actual Time 7:42 AM AKDT 8:25 PM AKDT
Civil Twilight 7:02 AM AKDT 9:04 PM AKDT
Nautical Twilight 6:14 AM AKDT 9:52 PM AKDT
Astronomical Twilight 5:22 AM AKDT 10:44 PM AKDT
Moon 12:04 AM AKDT 4:52 PM AKDT
Length of Visible Light 14h 01m
Length of Day
12h 42m
Tomorrow will be 4m 57s shorter.
Waning Gibbous, 47% of the Moon is Illuminated
Today
Waning Gibbous
Sep 24
New
Oct 1
First Quarter
Oct 8
Full
Oct 15
Last Quarter

Today's Extremes

State Highs State Lows

Community

WunderPhotos

Upload Photos

1,753,717 photos uploaded!

WunderBlogs® & News

Nearby

Snow Depth

Station Depth Elevation
Fort Yukon 0 in 430 ft
Port Graham 0 in 300 ft
Summit Creek 0 in 1400 ft
MF Bradley River 4 in 2300 ft
Turnagain Pass 2 in 1880 ft

Earthquake Activity

City Distance Mag. Time & Date
No recent earthquake activity has been reported nearby.
Minimum magnitude displayed is 2.5.

Coastal Water Temperatures

Place Temperature
No Stations Reporting

Nearby Weather Stations